createdAt,value
2018-04-23T00:01:46.021Z,59.30
2018-04-23T00:04:12.310Z,59.30
2018-04-23T00:06:38.644Z,59.50
2018-04-23T00:09:05.012Z,58.90
2018-04-23T00:11:32.023Z,58.50
2018-04-23T00:13:58.334Z,58.50
2018-04-23T00:16:24.650Z,58.30
2018-04-23T00:18:50.928Z,57.50
2018-04-23T00:21:17.283Z,57.50
2018-04-23T00:23:43.554Z,57.50
2018-04-23T00:26:09.796Z,57.00
2018-04-23T00:28:36.150Z,57.30
2018-04-23T00:31:02.911Z,57.20
2018-04-23T00:33:30.075Z,57.40
2018-04-23T00:35:56.390Z,57.40
2018-04-23T00:38:22.701Z,58.20
2018-04-23T00:40:49.007Z,57.70
2018-04-23T00:43:16.063Z,58.30
2018-04-23T00:45:46.681Z,58.70
2018-04-23T00:48:12.996Z,58.60
2018-04-23T00:50:39.286Z,58.90
2018-04-23T00:53:17.752Z,59.10
2018-04-23T00:55:44.071Z,59.10
2018-04-23T00:58:11.055Z,59.70
2018-04-23T01:00:37.823Z,59.70
2018-04-23T01:03:04.130Z,59.20
2018-04-23T01:05:30.448Z,59.50
2018-04-23T01:07:56.756Z,59.60
2018-04-23T01:10:23.088Z,59.80
2018-04-23T01:12:49.371Z,60.10
2018-04-23T01:15:16.404Z,60.60
2018-04-23T01:17:42.678Z,60.60
2018-04-23T01:20:09.003Z,61.20
2018-04-23T01:22:35.332Z,60.90
2018-04-23T01:25:01.630Z,61.60
2018-04-23T01:27:27.918Z,62.10
2018-04-23T01:29:54.246Z,61.70
2018-04-23T01:32:20.677Z,61.80
2018-04-23T01:34:47.063Z,61.90
2018-04-23T01:37:13.340Z,62.50
2018-04-23T01:39:39.644Z,63.00
2018-04-23T01:42:06.657Z,63.70
2018-04-23T01:44:33.746Z,63.80
2018-04-23T01:47:00.016Z,63.70
2018-04-23T01:49:26.382Z,63.70
2018-04-23T01:51:52.623Z,63.50
2018-04-23T01:54:18.917Z,63.80
2018-04-23T01:56:45.259Z,64.00
2018-04-23T01:59:11.573Z,64.10
2018-04-23T02:01:38.624Z,64.40
2018-04-23T02:04:04.903Z,64.30
2018-04-23T02:06:31.197Z,64.70
2018-04-23T02:08:57.495Z,64.70
2018-04-23T02:11:23.835Z,64.70
2018-04-23T02:13:50.227Z,65.00
2018-04-23T02:16:18.527Z,65.20
2018-04-23T02:18:45.546Z,65.40
2018-04-23T02:21:11.838Z,65.30
2018-04-23T02:23:38.945Z,65.80
2018-04-23T02:26:05.202Z,65.70
2018-04-23T02:28:31.521Z,65.40
2018-04-23T02:30:57.793Z,65.90
2018-04-23T02:33:24.143Z,66.00
2018-04-23T02:35:50.450Z,66.00
2018-04-23T02:38:16.801Z,66.20
2018-04-23T02:40:43.128Z,65.90
2018-04-23T02:43:09.367Z,66.20
2018-04-23T02:45:35.667Z,65.80
2018-04-23T02:48:02.791Z,66.10
2018-04-23T02:50:29.052Z,66.00
2018-04-23T02:52:56.141Z,66.30
2018-04-23T02:55:23.288Z,66.40
2018-04-23T02:57:49.569Z,66.40
2018-04-23T03:00:15.877Z,66.80
2018-04-23T03:02:42.203Z,66.70
2018-04-23T03:05:08.454Z,68.60
2018-04-23T03:07:34.732Z,66.50
2018-04-23T03:10:01.061Z,65.70
2018-04-23T03:12:28.088Z,65.20
2018-04-23T03:14:54.411Z,65.20
2018-04-23T03:17:20.731Z,65.20
2018-04-23T03:19:47.027Z,65.30
2018-04-23T03:22:13.326Z,65.30
2018-04-23T03:24:39.615Z,65.10
2018-04-23T03:27:05.908Z,65.20
2018-04-23T03:29:32.286Z,66.30
2018-04-23T03:31:58.586Z,65.80
2018-04-23T03:34:24.883Z,66.00
2018-04-23T03:36:51.219Z,66.50
2018-04-23T03:39:17.540Z,66.40
2018-04-23T03:41:43.825Z,66.30
2018-04-23T03:44:10.090Z,66.40
2018-04-23T03:46:36.478Z,66.70
2018-04-23T03:49:02.844Z,67.30
2018-04-23T03:51:29.140Z,67.30
2018-04-23T03:53:55.398Z,66.80
2018-04-23T03:56:21.751Z,67.00
2018-04-23T03:58:51.825Z,66.80
2018-04-23T04:01:18.950Z,66.40
2018-04-23T04:03:45.262Z,66.40
2018-04-23T04:06:11.524Z,65.90
2018-04-23T04:08:37.901Z,66.10
2018-04-23T04:11:04.263Z,66.30
2018-04-23T04:13:43.704Z,66.60
2018-04-23T04:16:22.982Z,66.70
2018-04-23T04:18:49.405Z,66.70
2018-04-23T04:21:15.754Z,66.90
2018-04-23T04:23:42.139Z,67.30
2018-04-23T04:26:08.454Z,69.30
2018-04-23T04:28:34.741Z,68.50
2018-04-23T04:31:02.700Z,67.00
2018-04-23T04:33:29.032Z,67.00
2018-04-23T04:35:55.301Z,66.70
2018-04-23T04:38:21.621Z,66.60
2018-04-23T04:40:48.065Z,66.10
2018-04-23T04:43:14.383Z,67.30
2018-04-23T04:45:40.661Z,66.60
2018-04-23T04:48:07.008Z,66.10
2018-04-23T04:50:33.264Z,65.20
2018-04-23T04:52:59.642Z,65.20
2018-04-23T04:55:26.721Z,66.00
2018-04-23T04:57:53.055Z,65.20
2018-04-23T05:00:20.241Z,64.90
2018-04-23T05:02:46.558Z,64.90
2018-04-23T05:05:13.659Z,65.00
2018-04-23T05:07:40.083Z,64.90
2018-04-23T05:10:06.442Z,64.80
2018-04-23T05:12:32.760Z,64.70
2018-04-23T05:14:59.092Z,64.70
2018-04-23T05:17:26.113Z,64.40
2018-04-23T05:19:52.427Z,64.40
2018-04-23T05:22:18.728Z,64.10
2018-04-23T05:24:45.096Z,64.10
2018-04-23T05:27:11.397Z,64.00
2018-04-23T05:29:37.695Z,63.70
2018-04-23T05:32:03.999Z,63.90
2018-04-23T05:34:30.279Z,64.10
2018-04-23T05:36:56.582Z,64.20
2018-04-23T05:39:22.845Z,63.90
2018-04-23T05:41:49.945Z,63.30
2018-04-23T05:44:16.333Z,63.20
2018-04-23T05:46:43.530Z,62.50
2018-04-23T05:49:09.882Z,62.50
2018-04-23T05:51:36.180Z,62.40
2018-04-23T05:54:02.454Z,62.00
2018-04-23T05:56:28.747Z,61.70
2018-04-23T05:58:54.957Z,61.80
2018-04-23T06:01:21.281Z,62.40
2018-04-23T06:03:47.596Z,61.30
2018-04-23T06:06:14.637Z,61.10
2018-04-23T06:08:40.952Z,61.10
2018-04-23T06:11:07.312Z,60.70
2018-04-23T06:13:33.648Z,61.20
2018-04-23T06:15:59.925Z,60.60
2018-04-23T06:18:26.966Z,59.80
2018-04-23T06:20:53.286Z,59.70
2018-04-23T06:23:19.586Z,59.10
2018-04-23T06:25:46.667Z,58.80
2018-04-23T06:28:13.100Z,58.80
2018-04-23T06:30:39.563Z,58.80
2018-04-23T06:33:05.845Z,58.90
2018-04-23T06:35:32.378Z,59.10
2018-04-23T06:37:58.670Z,58.40
2018-04-23T06:40:24.928Z,57.30
2018-04-23T06:42:51.295Z,56.20
2018-04-23T06:45:17.625Z,55.80
2018-04-23T06:47:44.007Z,54.40
2018-04-23T06:50:10.423Z,53.50
2018-04-23T06:52:36.790Z,52.40
2018-04-23T06:55:03.106Z,50.80
2018-04-23T06:57:29.412Z,48.60
2018-04-23T06:59:56.476Z,46.70
2018-04-23T07:02:23.517Z,46.50
2018-04-23T07:04:50.654Z,45.50
2018-04-23T07:07:16.976Z,45.50
2018-04-23T07:09:43.287Z,45.90
2018-04-23T07:12:09.545Z,47.50
2018-04-23T07:14:35.933Z,47.70
2018-04-23T07:17:02.228Z,48.80
2018-04-23T07:19:28.657Z,49.70
2018-04-23T07:21:54.962Z,50.00
2018-04-23T07:24:21.284Z,50.40
2018-04-23T07:26:47.745Z,48.20
2018-04-23T07:29:14.053Z,48.30
2018-04-23T07:31:40.327Z,47.80
2018-04-23T07:34:06.645Z,47.90
2018-04-23T07:36:32.996Z,48.40
2018-04-23T07:38:59.397Z,48.20
2018-04-23T07:41:26.414Z,48.60
2018-04-23T07:43:52.738Z,48.60
2018-04-23T07:46:19.061Z,47.40
2018-04-23T07:48:46.171Z,46.10
2018-04-23T07:51:12.513Z,46.10
2018-04-23T07:53:38.831Z,45.60
2018-04-23T07:56:05.165Z,45.70
2018-04-23T07:58:31.546Z,45.90
2018-04-23T08:00:57.875Z,45.00
2018-04-23T08:03:24.155Z,44.80
2018-04-23T08:05:50.458Z,44.50
2018-04-23T08:08:16.763Z,43.30
2018-04-23T08:10:43.858Z,43.70
2018-04-23T08:13:10.153Z,43.60
2018-04-23T08:15:37.301Z,42.70
2018-04-23T08:18:03.611Z,42.70
2018-04-23T08:20:29.899Z,43.10
2018-04-23T08:22:57.030Z,45.80
2018-04-23T08:25:23.339Z,45.80
2018-04-23T08:27:50.396Z,46.50
2018-04-23T08:30:16.615Z,46.40
2018-04-23T08:32:43.720Z,48.30
2018-04-23T08:35:10.029Z,48.30
2018-04-23T08:37:36.460Z,48.30
2018-04-23T08:40:02.809Z,47.70
2018-04-23T08:42:29.855Z,47.40
2018-04-23T08:44:56.965Z,46.50
2018-04-23T08:47:23.210Z,46.40
2018-04-23T08:49:49.527Z,46.00
2018-04-23T08:52:15.873Z,45.00
2018-04-23T08:54:42.350Z,45.10
2018-04-23T08:57:08.699Z,45.20
2018-04-23T08:59:34.985Z,44.10
2018-04-23T09:02:02.101Z,43.50
2018-04-23T09:04:28.477Z,43.50
2018-04-23T09:06:55.567Z,43.10
2018-04-23T09:09:21.864Z,43.00
2018-04-23T09:11:48.150Z,44.00
2018-04-23T09:14:14.438Z,43.20
2018-04-23T09:16:40.845Z,42.90
2018-04-23T09:19:07.169Z,43.00
2018-04-23T09:21:34.175Z,42.30
2018-04-23T09:24:00.475Z,42.30
2018-04-23T09:26:27.478Z,41.30
2018-04-23T09:28:53.837Z,41.20
2018-04-23T09:31:20.152Z,40.70
2018-04-23T09:33:46.533Z,41.40
2018-04-23T09:36:12.892Z,41.60
2018-04-23T09:38:39.914Z,42.20
2018-04-23T09:41:06.281Z,42.20
2018-04-23T09:43:32.596Z,43.40
2018-04-23T09:45:58.887Z,43.00
2018-04-23T09:48:26.037Z,44.80
2018-04-23T09:50:53.183Z,45.80
2018-04-23T09:53:19.482Z,45.70
2018-04-23T09:55:45.818Z,46.60
2018-04-23T09:58:12.085Z,47.00
2018-04-23T10:00:39.221Z,51.40
2018-04-23T10:03:07.575Z,51.50
2018-04-23T10:05:33.859Z,56.50
2018-04-23T10:08:00.161Z,61.10
2018-04-23T10:10:26.453Z,65.40
2018-04-23T10:12:52.830Z,70.00
2018-04-23T10:15:19.125Z,71.00
2018-04-23T10:17:45.486Z,69.40
2018-04-23T10:20:12.586Z,68.90
2018-04-23T10:22:38.893Z,68.90
2018-04-23T10:25:05.208Z,70.90
2018-04-23T10:27:32.291Z,71.20
2018-04-23T10:29:58.574Z,71.10
2018-04-23T10:32:24.917Z,70.30
2018-04-23T10:34:51.249Z,70.90
2018-04-23T10:37:17.547Z,68.80
2018-04-23T10:39:43.962Z,69.00
2018-04-23T10:42:11.044Z,71.70
2018-04-23T10:44:38.205Z,71.80
2018-04-23T10:47:04.503Z,71.80
2018-04-23T10:49:30.777Z,71.00
2018-04-23T10:51:57.052Z,71.60
2018-04-23T10:54:23.347Z,68.30
2018-04-23T10:56:49.623Z,69.30
2018-04-23T10:59:16.608Z,69.60
2018-04-23T11:01:42.896Z,69.50
2018-04-23T11:04:09.170Z,70.00
2018-04-23T11:06:35.511Z,69.00
2018-04-23T11:09:01.885Z,70.70
2018-04-23T11:11:28.234Z,70.30
2018-04-23T11:13:54.575Z,71.30
2018-04-23T11:16:20.848Z,71.80
2018-04-23T11:18:47.167Z,70.90
2018-04-23T11:21:13.462Z,69.90
2018-04-23T11:23:40.560Z,69.80
2018-04-23T11:26:06.915Z,69.80
2018-04-23T11:28:33.267Z,69.00
2018-04-23T11:31:00.320Z,69.50
2018-04-23T11:33:26.599Z,69.50
2018-04-23T11:35:52.976Z,68.30
2018-04-23T11:38:19.293Z,65.60
2018-04-23T11:40:46.370Z,63.10
2018-04-23T11:43:12.663Z,63.10
2018-04-23T11:45:38.962Z,63.20
2018-04-23T11:48:05.375Z,63.60
2018-04-23T11:50:32.443Z,60.90
2018-04-23T11:52:59.574Z,61.60
2018-04-23T11:55:25.882Z,61.50
2018-04-23T11:57:52.160Z,60.00
2018-04-23T12:00:18.469Z,60.80
2018-04-23T12:02:44.785Z,59.80
2018-04-23T12:05:11.086Z,59.90
2018-04-23T12:07:37.476Z,60.00
2018-04-23T12:10:03.763Z,59.30
2018-04-23T12:12:30.105Z,59.70
2018-04-23T12:14:56.475Z,59.20
2018-04-23T12:17:22.705Z,58.50
2018-04-23T12:19:49.093Z,57.70
2018-04-23T12:22:15.384Z,57.80
2018-04-23T12:24:42.271Z,58.00
2018-04-23T12:27:12.966Z,58.00
2018-04-23T12:29:39.357Z,58.00
2018-04-23T12:32:06.437Z,58.80
2018-04-23T12:34:33.474Z,58.30
2018-04-23T12:37:00.590Z,56.70
2018-04-23T12:39:26.879Z,56.70
2018-04-23T12:41:54.301Z,56.50
2018-04-23T12:44:21.358Z,56.20
2018-04-23T12:46:47.674Z,56.10
2018-04-23T12:49:14.728Z,56.10
2018-04-23T12:51:42.618Z,56.30
2018-04-23T12:54:09.123Z,56.30
2018-04-23T12:56:35.468Z,57.30
2018-04-23T12:59:01.763Z,56.00
2018-04-23T13:01:28.042Z,56.20
2018-04-23T13:03:54.341Z,55.60
2018-04-23T13:06:20.638Z,55.00
2018-04-23T13:08:46.964Z,55.40
2018-04-23T13:11:13.351Z,54.90
2018-04-23T13:13:40.380Z,54.20
2018-04-23T13:16:06.677Z,54.20
2018-04-23T13:18:33.219Z,54.00
2018-04-23T13:20:59.561Z,53.20
2018-04-23T13:23:25.902Z,52.80
2018-04-23T13:25:52.409Z,52.80
2018-04-23T13:28:19.427Z,53.00
2018-04-23T13:30:45.774Z,52.90
2018-04-23T13:33:12.647Z,53.20
2018-04-23T13:35:38.972Z,53.50
2018-04-23T13:38:06.061Z,52.10
2018-04-23T13:40:32.394Z,53.00
2018-04-23T13:42:58.776Z,51.90
2018-04-23T13:45:25.097Z,52.00
2018-04-23T13:47:52.239Z,51.10
2018-04-23T13:50:18.606Z,51.00
2018-04-23T13:52:45.119Z,51.30
2018-04-23T13:55:11.599Z,51.10
2018-04-23T13:57:37.983Z,49.10
2018-04-23T14:00:04.318Z,50.90
2018-04-23T14:02:30.780Z,50.80
2018-04-23T14:04:57.258Z,50.80
2018-04-23T14:07:23.569Z,51.10
2018-04-23T14:09:50.000Z,49.60
2018-04-23T14:12:17.068Z,49.60
2018-04-23T14:14:43.595Z,49.60
2018-04-23T14:17:10.644Z,50.60
2018-04-23T14:19:38.280Z,50.50
2018-04-23T14:22:04.634Z,52.20
2018-04-23T14:24:31.163Z,51.60
2018-04-23T14:26:57.527Z,51.60
2018-04-23T14:29:23.893Z,52.50
2018-04-23T14:31:50.227Z,52.50
2018-04-23T14:34:16.879Z,52.50
2018-04-23T14:36:43.148Z,52.70
2018-04-23T14:39:10.226Z,53.50
2018-04-23T14:41:37.450Z,53.30
2018-04-23T14:44:04.570Z,53.70
2018-04-23T14:46:30.955Z,53.80
2018-04-23T14:48:57.312Z,53.50
2018-04-23T14:51:23.651Z,53.80
2018-04-23T14:53:50.201Z,54.20
2018-04-23T14:56:17.284Z,57.10
2018-04-23T14:58:44.400Z,57.00
2018-04-23T15:01:10.692Z,56.90
2018-04-23T15:03:37.805Z,56.10
2018-04-23T15:06:04.127Z,56.10
2018-04-23T15:08:30.515Z,52.90
2018-04-23T15:10:56.834Z,53.10
2018-04-23T15:13:23.177Z,52.00
2018-04-23T15:15:49.596Z,52.20
2018-04-23T15:18:15.934Z,52.60
2018-04-23T15:20:42.262Z,51.90
2018-04-23T15:23:08.623Z,52.10
2018-04-23T15:25:35.034Z,51.40
2018-04-23T15:28:02.190Z,52.60
2018-04-23T15:30:28.495Z,52.50
2018-04-23T15:32:54.767Z,52.00
2018-04-23T15:35:21.873Z,53.20
2018-04-23T15:37:48.268Z,52.80
2018-04-23T15:40:14.602Z,53.90
2018-04-23T15:42:40.893Z,54.00
2018-04-23T15:45:07.186Z,54.40
2018-04-23T15:47:33.504Z,53.60
2018-04-23T15:49:59.922Z,53.20
2018-04-23T15:52:32.097Z,52.90
2018-04-23T15:54:59.197Z,53.50
2018-04-23T15:57:25.476Z,53.50
2018-04-23T15:59:51.864Z,54.50
2018-04-23T16:02:18.149Z,55.40
2018-04-23T16:04:44.495Z,56.00
2018-04-23T16:07:10.898Z,55.90
2018-04-23T16:09:37.164Z,55.40
2018-04-23T16:12:03.513Z,55.50
2018-04-23T16:14:29.810Z,55.60
2018-04-23T16:16:56.095Z,55.30
2018-04-23T16:19:22.440Z,54.50
2018-04-23T16:21:48.698Z,54.40
2018-04-23T16:24:15.112Z,53.30
2018-04-23T16:26:41.876Z,54.70
2018-04-23T16:29:08.228Z,67.10
2018-04-23T16:31:34.558Z,68.10
2018-04-23T16:34:00.890Z,70.40
2018-04-23T16:36:27.206Z,75.10
2018-04-23T16:38:53.536Z,75.20
2018-04-23T16:41:20.618Z,75.80
2018-04-23T16:43:46.933Z,75.80
2018-04-23T16:46:13.995Z,76.40
2018-04-23T16:48:40.267Z,76.20
2018-04-23T16:51:06.539Z,77.50
2018-04-23T16:53:32.819Z,77.90
2018-04-23T16:55:59.076Z,79.80
2018-04-23T16:58:26.062Z,77.60
2018-04-23T17:00:52.403Z,77.40
2018-04-23T17:03:18.721Z,78.40
2018-04-23T17:05:45.002Z,80.00
2018-04-23T17:08:11.300Z,79.90
2018-04-23T17:10:38.400Z,79.80
2018-04-23T17:13:04.717Z,79.70
2018-04-23T17:15:31.040Z,78.20
2018-04-23T17:17:58.066Z,78.50
2018-04-23T17:20:24.479Z,78.50
2018-04-23T17:22:50.817Z,77.70
2018-04-23T17:25:17.100Z,78.60
2018-04-23T17:27:43.376Z,80.00
2018-04-23T17:30:10.437Z,80.70
2018-04-23T17:32:37.412Z,81.00
2018-04-23T17:35:03.764Z,80.90
2018-04-23T17:37:30.834Z,81.10
2018-04-23T17:39:57.171Z,81.10
2018-04-23T17:42:23.457Z,80.80
2018-04-23T17:44:49.820Z,80.40
2018-04-23T17:47:16.101Z,80.30
2018-04-23T17:49:42.477Z,81.10
2018-04-23T17:52:08.839Z,81.00
2018-04-23T17:54:35.182Z,80.40
2018-04-23T17:57:01.617Z,80.60
2018-04-23T17:59:27.933Z,79.80
2018-04-23T18:01:54.354Z,79.10
2018-04-23T18:04:20.711Z,80.90
2018-04-23T18:06:49.481Z,81.10
2018-04-23T18:09:23.694Z,80.80
2018-04-23T18:11:50.019Z,80.70
2018-04-23T18:14:16.328Z,80.90
2018-04-23T18:16:43.833Z,82.20
2018-04-23T18:19:10.210Z,82.10
2018-04-23T18:21:37.214Z,83.00
2018-04-23T18:24:03.523Z,82.90
2018-04-23T18:26:30.588Z,84.90
2018-04-23T18:28:56.860Z,84.80
2018-04-23T18:31:23.163Z,85.10
2018-04-23T18:33:49.435Z,85.60
2018-04-23T18:36:15.740Z,85.80
2018-04-23T18:38:42.793Z,84.30
2018-04-23T18:41:09.069Z,83.80
2018-04-23T18:43:35.374Z,84.40
2018-04-23T18:46:01.644Z,84.00
2018-04-23T18:48:28.757Z,83.60
2018-04-23T18:50:55.085Z,83.60
2018-04-23T18:53:21.392Z,84.30
2018-04-23T18:55:48.612Z,85.40
2018-04-23T18:58:14.936Z,85.30
2018-04-23T19:00:41.278Z,85.90
2018-04-23T19:03:08.374Z,86.70
2018-04-23T19:05:35.489Z,87.10
2018-04-23T19:08:01.838Z,87.10
2018-04-23T19:10:28.106Z,87.10
2018-04-23T19:12:54.448Z,87.30
2018-04-23T19:15:20.760Z,87.00
2018-04-23T19:17:47.081Z,87.00
2018-04-23T19:20:14.176Z,87.60
2018-04-23T19:22:40.446Z,87.60
2018-04-23T19:25:06.734Z,88.10
2018-04-23T19:27:33.030Z,88.60
2018-04-23T19:30:00.784Z,88.30
2018-04-23T19:32:27.828Z,88.30
2018-04-23T19:34:54.169Z,88.30
2018-04-23T19:37:20.414Z,88.50
2018-04-23T19:39:46.855Z,88.60
2018-04-23T19:42:13.173Z,88.40
2018-04-23T19:44:40.174Z,87.60
2018-04-23T19:47:06.491Z,87.50
2018-04-23T19:49:32.787Z,87.30
2018-04-23T19:51:59.130Z,86.90
2018-04-23T19:54:25.443Z,87.10
2018-04-23T19:56:51.711Z,87.20
2018-04-23T19:59:18.095Z,86.90
2018-04-23T20:01:45.218Z,87.30
2018-04-23T20:04:11.532Z,87.30
2018-04-23T20:06:37.946Z,87.30
2018-04-23T20:09:04.291Z,87.20
2018-04-23T20:11:30.608Z,86.70
2018-04-23T20:13:56.847Z,86.50
2018-04-23T20:16:23.103Z,87.30
2018-04-23T20:18:50.150Z,87.00
2018-04-23T20:21:16.435Z,86.90
2018-04-23T20:23:42.787Z,86.00
2018-04-23T20:26:09.094Z,85.00
2018-04-23T20:28:36.541Z,85.90
2018-04-23T20:31:02.848Z,86.00
2018-04-23T20:33:29.124Z,86.00
2018-04-23T20:35:55.414Z,85.60
2018-04-23T20:38:21.717Z,85.80
2018-04-23T20:40:49.564Z,86.50
2018-04-23T20:43:15.909Z,86.40
2018-04-23T20:45:42.216Z,87.30
2018-04-23T20:48:08.568Z,88.00
2018-04-23T20:50:35.012Z,87.80
2018-04-23T20:53:01.175Z,88.20
2018-04-23T20:55:27.480Z,88.30
2018-04-23T20:57:53.755Z,88.20
2018-04-23T21:00:20.037Z,88.10
2018-04-23T21:02:46.368Z,88.40
2018-04-23T21:05:12.701Z,88.60
2018-04-23T21:07:38.995Z,88.80
2018-04-23T21:10:05.299Z,89.20
2018-04-23T21:12:31.548Z,89.50
2018-04-23T21:14:57.920Z,89.60
2018-04-23T21:17:24.972Z,90.00
2018-04-23T21:19:51.278Z,90.00
2018-04-23T21:22:17.627Z,90.00
2018-04-23T21:24:44.130Z,90.20
2018-04-23T21:27:10.421Z,90.10
2018-04-23T21:29:36.852Z,89.70
2018-04-23T21:32:03.187Z,89.40
2018-04-23T21:34:29.516Z,89.50
2018-04-23T21:36:55.789Z,89.50
2018-04-23T21:39:22.072Z,89.30
2018-04-23T21:41:49.084Z,89.90
2018-04-23T21:44:15.483Z,89.80
2018-04-23T21:46:41.721Z,89.80
2018-04-23T21:49:08.034Z,89.40
2018-04-23T21:51:34.315Z,89.00
2018-04-23T21:54:00.642Z,89.20
2018-04-23T21:56:27.632Z,89.00
2018-04-23T21:58:53.888Z,89.00
2018-04-23T22:01:20.250Z,89.00
2018-04-23T22:03:46.580Z,88.80
2018-04-23T22:06:13.437Z,88.80
2018-04-23T22:08:39.736Z,90.10
2018-04-23T22:11:06.018Z,89.30
2018-04-23T22:13:32.311Z,88.70
2018-04-23T22:15:58.627Z,89.20
2018-04-23T22:18:24.954Z,89.50
2018-04-23T22:20:51.163Z,90.00
2018-04-23T22:23:17.461Z,90.10
2018-04-23T22:25:43.762Z,90.20
2018-04-23T22:28:10.010Z,90.80
2018-04-23T22:30:36.261Z,90.60
2018-04-23T22:33:02.546Z,90.60
2018-04-23T22:35:29.596Z,90.60
2018-04-23T22:37:56.641Z,90.70
2018-04-23T22:40:23.021Z,90.70
2018-04-23T22:42:49.284Z,90.70
2018-04-23T22:45:15.568Z,90.80
2018-04-23T22:47:41.816Z,90.80
2018-04-23T22:50:08.078Z,90.90
2018-04-23T22:52:35.087Z,91.10
2018-04-23T22:55:01.334Z,91.10
2018-04-23T22:57:27.673Z,91.00
2018-04-23T22:59:53.946Z,91.00
2018-04-23T23:02:20.213Z,91.00
2018-04-23T23:04:46.503Z,90.90
2018-04-23T23:07:12.782Z,91.90
2018-04-23T23:09:39.916Z,91.10
2018-04-23T23:12:06.178Z,91.10
2018-04-23T23:14:33.168Z,91.40
2018-04-23T23:16:59.440Z,91.10
2018-04-23T23:19:25.807Z,91.00
2018-04-23T23:21:52.104Z,91.00
2018-04-23T23:24:18.429Z,91.00
2018-04-23T23:26:44.770Z,91.00
2018-04-23T23:29:11.029Z,90.90
2018-04-23T23:31:37.348Z,90.90
2018-04-23T23:34:04.408Z,90.70
2018-04-23T23:36:30.675Z,90.60
2018-04-23T23:38:57.002Z,90.70
2018-04-23T23:41:23.260Z,90.70
2018-04-23T23:43:49.654Z,90.70
2018-04-23T23:46:15.901Z,90.90
2018-04-23T23:48:42.135Z,91.10
2018-04-23T23:51:08.501Z,91.10
2018-04-23T23:53:35.478Z,91.50
2018-04-23T23:56:01.722Z,91.50
2018-04-23T23:58:28.019Z,91.80
